Time;durP1;ratioP1;P1;durP2;ratioP2;P2;SDS_P1;SDS_P2;PMS_P1;PMS_P2;Temp;Humidity;BMP_temperature;BMP_pressure;BME280_temperature;BME280_humidity;BME280_pressure;Samples;Min_cycle;Max_cycle;Signal;HPM_P1;HPM_P2
2023/04/20 00:12:29;;;;;;;2.40;1.00;;;9.00;99.90;;;;;;4993496;28;20193;-63
2023/04/20 00:18:18;;;;;;;0.90;0.90;;;8.90;99.90;;;;;;4988842;28;20284;-64
2023/04/20 00:20:45;;;;;;;1.00;0.80;;;8.90;99.90;;;;;;4994297;28;20271;-65
2023/04/20 00:23:12;;;;;;;0.90;0.90;;;8.90;99.90;;;;;;5010295;28;20209;-64
2023/04/20 00:25:39;;;;;;;0.70;0.70;;;8.90;99.90;;;;;;5010181;28;20233;-64
2023/04/20 00:28:07;;;;;;;0.90;0.90;;;8.80;99.90;;;;;;5009759;28;20270;-65
2023/04/20 00:30:34;;;;;;;1.10;0.90;;;8.70;99.90;;;;;;5008265;28;20285;-63
2023/04/20 00:33:00;;;;;;;0.87;0.87;;;8.70;99.90;;;;;;4999922;28;20206;-64
2023/04/20 00:35:27;;;;;;;0.85;0.85;;;8.60;99.90;;;;;;4993912;28;20608;-63
2023/04/20 00:37:54;;;;;;;0.80;0.80;;;8.50;99.90;;;;;;4993482;28;20240;-63
2023/04/20 00:40:21;;;;;;;0.90;0.90;;;8.50;99.90;;;;;;4992247;28;20710;-63
2023/04/20 00:42:48;;;;;;;0.90;0.90;;;8.50;99.90;;;;;;4992849;28;20205;-62
2023/04/20 00:45:16;;;;;;;0.90;0.90;;;8.50;99.90;;;;;;4992882;28;20707;-63
2023/04/20 00:47:43;;;;;;;0.80;0.80;;;8.40;99.90;;;;;;4993427;28;20208;-63
2023/04/20 00:50:11;;;;;;;0.90;0.90;;;8.40;99.90;;;;;;4991395;28;20720;-65
2023/04/20 00:52:38;;;;;;;0.90;0.90;;;8.40;99.90;;;;;;4993133;28;20209;-64
2023/04/20 00:55:06;;;;;;;0.97;0.97;;;8.30;99.90;;;;;;4994087;28;20220;-63
2023/04/20 00:57:33;;;;;;;0.90;0.90;;;8.30;99.90;;;;;;4995143;28;20317;-63
2023/04/20 01:00:00;;;;;;;0.80;0.80;;;8.20;99.90;;;;;;4994019;28;20672;-65
2023/04/20 01:02:28;;;;;;;0.90;0.90;;;8.20;99.90;;;;;;4993982;28;20228;-63
2023/04/20 01:04:56;;;;;;;0.80;0.80;;;8.30;99.90;;;;;;4994089;28;20661;-64
2023/04/20 01:07:22;;;;;;;1.00;0.90;;;8.20;99.90;;;;;;4993995;28;20210;-64
2023/04/20 01:09:49;;;;;;;0.80;0.80;;;8.20;99.90;;;;;;4988366;28;20234;-64
2023/04/20 01:12:16;;;;;;;1.00;0.90;;;8.10;99.90;;;;;;4993626;28;20212;-65
2023/04/20 01:14:43;;;;;;;0.83;0.83;;;8.10;99.90;;;;;;4996884;28;20685;-64
2023/04/20 01:17:10;;;;;;;0.60;0.60;;;8.00;99.90;;;;;;4996679;28;20312;-65
2023/04/20 01:19:38;;;;;;;0.70;0.70;;;7.90;99.90;;;;;;4994890;28;20234;-64
2023/04/20 01:22:06;;;;;;;0.90;0.90;;;7.80;99.90;;;;;;4995717;28;20206;-64
2023/04/20 01:24:34;;;;;;;0.90;0.90;;;7.80;99.90;;;;;;4995591;28;20342;-65
2023/04/20 01:27:01;;;;;;;1.30;1.10;;;7.80;99.90;;;;;;4995549;28;20208;-62
2023/04/20 01:29:28;;;;;;;0.80;0.80;;;7.70;99.90;;;;;;4994831;28;20230;-65
2023/04/20 01:31:55;;;;;;;1.10;1.10;;;7.70;99.90;;;;;;4995232;28;20216;-63
2023/04/20 01:34:22;;;;;;;1.00;1.00;;;7.80;99.90;;;;;;4995317;28;20325;-65
2023/04/20 01:36:49;;;;;;;0.80;0.80;;;7.80;99.90;;;;;;4995261;28;20205;-64
2023/04/20 01:39:17;;;;;;;1.30;1.20;;;7.90;99.90;;;;;;4995034;28;20230;-64
2023/04/20 01:41:46;;;;;;;0.80;0.80;;;8.00;99.90;;;;;;4995447;28;20221;-63
2023/04/20 01:44:13;;;;;;;1.00;1.00;;;7.90;99.90;;;;;;4995432;28;20240;-64
2023/04/20 01:46:40;;;;;;;1.10;1.10;;;7.80;99.90;;;;;;4995994;28;20213;-65
2023/04/20 01:49:07;;;;;;;1.10;1.10;;;7.90;99.90;;;;;;5000517;28;20297;-64
2023/04/20 01:51:35;;;;;;;1.00;1.00;;;7.90;99.90;;;;;;5001055;28;20210;-63
2023/04/20 01:54:02;;;;;;;0.90;0.90;;;7.90;99.90;;;;;;4998736;28;20205;-65
2023/04/20 01:56:30;;;;;;;0.90;0.90;;;7.80;99.90;;;;;;4996907;28;20212;-65
2023/04/20 01:58:58;;;;;;;0.80;0.80;;;7.80;99.90;;;;;;4995541;28;20232;-64
2023/04/20 02:01:25;;;;;;;0.87;0.87;;;7.70;99.90;;;;;;4995731;28;20210;-63
2023/04/20 02:03:52;;;;;;;1.05;1.05;;;7.70;99.90;;;;;;4995802;28;20212;-64
2023/04/20 02:06:18;;;;;;;1.00;1.00;;;7.60;99.90;;;;;;4996431;28;20214;-64
2023/04/20 02:08:45;;;;;;;1.23;1.00;;;7.60;99.90;;;;;;4996881;28;20582;-63
2023/04/20 02:11:12;;;;;;;1.17;1.10;;;7.50;99.90;;;;;;4994673;28;20236;-63
2023/04/20 02:13:39;;;;;;;0.85;0.85;;;7.50;99.90;;;;;;4995781;28;20618;-65
2023/04/20 02:16:08;;;;;;;1.00;1.00;;;7.50;99.90;;;;;;4995611;28;20229;-64
2023/04/20 02:18:36;;;;;;;0.80;0.80;;;7.40;99.90;;;;;;5000032;28;20225;-64
2023/04/20 02:21:03;;;;;;;0.80;0.80;;;7.40;99.90;;;;;;5001675;28;20261;-64
2023/04/20 02:23:29;;;;;;;0.80;0.80;;;7.40;99.90;;;;;;4995022;28;20212;-64
2023/04/20 02:25:56;;;;;;;0.80;0.80;;;7.40;99.90;;;;;;4995506;28;20206;-64
2023/04/20 02:28:23;;;;;;;0.87;0.87;;;7.40;99.90;;;;;;4995130;28;20206;-65
2023/04/20 02:30:50;;;;;;;0.90;0.90;;;7.40;99.90;;;;;;4993577;28;20240;-63
2023/04/20 02:33:19;;;;;;;1.00;1.00;;;7.40;99.90;;;;;;4994877;28;20218;-65
2023/04/20 02:35:46;;;;;;;0.82;0.82;;;7.40;99.90;;;;;;4994649;28;20756;-64
2023/04/20 02:38:13;;;;;;;0.70;0.70;;;7.40;99.90;;;;;;4994986;28;20704;-63
2023/04/20 02:40:40;;;;;;;0.90;0.90;;;7.30;99.90;;;;;;4993413;28;20230;-64
2023/04/20 02:43:07;;;;;;;0.80;0.80;;;7.30;99.90;;;;;;4994123;28;20220;-63
2023/04/20 02:45:34;;;;;;;0.80;0.80;;;7.20;99.90;;;;;;4994207;28;20218;-63
2023/04/20 02:48:01;;;;;;;1.67;1.20;;;7.20;99.90;;;;;;4994451;28;20297;-65
2023/04/20 02:50:29;;;;;;;1.20;1.10;;;7.00;99.90;;;;;;4992986;28;20225;-63
2023/04/20 02:52:56;;;;;;;1.00;1.00;;;6.80;99.90;;;;;;4994104;28;20213;-64
2023/04/20 02:55:23;;;;;;;0.80;0.80;;;6.80;99.90;;;;;;4994249;28;20644;-63
2023/04/20 02:57:49;;;;;;;1.00;1.00;;;6.80;99.90;;;;;;4996592;28;20225;-65
2023/04/20 03:00:17;;;;;;;0.90;0.90;;;6.80;99.90;;;;;;4993877;28;20321;-65
2023/04/20 03:02:44;;;;;;;0.90;0.90;;;6.80;99.90;;;;;;4994039;28;20205;-66
2023/04/20 03:05:11;;;;;;;2.37;0.97;;;6.80;99.90;;;;;;4994253;28;20210;-64
2023/04/20 03:07:39;;;;;;;1.20;1.20;;;6.70;99.90;;;;;;4994292;28;20585;-64
2023/04/20 03:10:07;;;;;;;1.30;1.20;;;6.70;99.90;;;;;;4992964;28;20316;-64
2023/04/20 03:12:34;;;;;;;1.00;1.00;;;6.50;99.90;;;;;;4994068;28;20210;-63
2023/04/20 03:15:01;;;;;;;1.10;1.10;;;6.40;99.90;;;;;;4994553;28;20225;-64
2023/04/20 03:17:28;;;;;;;0.90;0.90;;;6.50;99.90;;;;;;4993795;28;20212;-63
2023/04/20 03:19:55;;;;;;;1.10;1.10;;;6.50;99.90;;;;;;4993129;28;20236;-62
2023/04/20 03:22:22;;;;;;;0.80;0.80;;;6.50;99.90;;;;;;4994289;28;20620;-64
2023/04/20 03:24:51;;;;;;;1.13;1.13;;;6.50;99.90;;;;;;4993627;28;20296;-64
2023/04/20 03:27:17;;;;;;;1.20;1.20;;;6.40;99.90;;;;;;4994969;28;20264;-65
2023/04/20 03:29:47;;;;;;;0.93;0.93;;;6.20;99.90;;;;;;4997182;28;20317;-64
2023/04/20 03:32:14;;;;;;;1.30;1.20;;;6.10;99.90;;;;;;4998559;28;20840;-65
2023/04/20 03:34:41;;;;;;;1.07;1.07;;;6.10;99.90;;;;;;4993690;28;20210;-65
2023/04/20 03:37:08;;;;;;;1.03;1.03;;;6.10;99.90;;;;;;4993719;28;20213;-66
2023/04/20 03:39:35;;;;;;;1.27;1.27;;;6.10;99.90;;;;;;4992555;28;20230;-64
2023/04/20 03:42:03;;;;;;;1.73;1.63;;;6.10;99.90;;;;;;4993292;28;20677;-65
2023/04/20 03:44:30;;;;;;;1.80;1.70;;;6.20;99.90;;;;;;4993274;28;20201;-64
2023/04/20 03:46:57;;;;;;;1.40;1.40;;;6.10;99.90;;;;;;4993602;28;20206;-64
2023/04/20 03:49:24;;;;;;;1.30;1.30;;;6.20;99.90;;;;;;4992530;28;20806;-65
2023/04/20 03:51:51;;;;;;;1.67;1.57;;;6.20;99.90;;;;;;4993462;28;20206;-63
2023/04/20 03:54:18;;;;;;;1.27;1.27;;;6.30;99.90;;;;;;4994035;28;20206;-64
2023/04/20 03:56:45;;;;;;;0.90;0.90;;;6.30;99.90;;;;;;4993521;28;20317;-62
2023/04/20 03:59:13;;;;;;;1.23;1.15;;;6.20;99.90;;;;;;4992537;28;20256;-64
2023/04/20 04:01:41;;;;;;;1.00;1.00;;;6.30;99.90;;;;;;4993250;28;20293;-64
2023/04/20 04:04:07;;;;;;;1.02;1.02;;;6.20;99.90;;;;;;4994562;28;20202;-64
2023/04/20 04:06:34;;;;;;;1.00;1.00;;;6.20;99.90;;;;;;4994029;28;20325;-64
2023/04/20 04:09:01;;;;;;;1.10;1.10;;;6.30;99.90;;;;;;4994193;28;20226;-65
2023/04/20 04:11:28;;;;;;;0.80;0.80;;;6.10;99.90;;;;;;4993487;28;20296;-65
2023/04/20 04:13:55;;;;;;;0.90;0.90;;;6.10;99.90;;;;;;4993147;28;20308;-64
2023/04/20 04:16:24;;;;;;;1.30;1.20;;;6.10;99.90;;;;;;4993725;28;20212;-64
2023/04/20 04:18:50;;;;;;;1.10;1.10;;;6.10;99.90;;;;;;4993278;28;20221;-64
2023/04/20 04:21:17;;;;;;;1.00;1.00;;;6.10;99.90;;;;;;4992568;28;20202;-65
2023/04/20 04:23:44;;;;;;;1.10;1.10;;;6.00;99.90;;;;;;4993147;28;20216;-64
2023/04/20 04:26:11;;;;;;;1.10;1.10;;;5.80;99.90;;;;;;4993702;28;20202;-63
2023/04/20 04:28:39;;;;;;;1.00;1.00;;;5.70;99.90;;;;;;4993470;28;20724;-64
2023/04/20 04:31:06;;;;;;;2.07;1.27;;;5.60;99.90;;;;;;4993206;28;20226;-64
2023/04/20 04:33:34;;;;;;;1.40;1.30;;;5.50;99.90;;;;;;4996148;28;20622;-63
2023/04/20 04:36:01;;;;;;;1.07;1.07;;;5.50;99.90;;;;;;5002536;28;20206;-64
2023/04/20 04:38:28;;;;;;;1.07;1.07;;;5.40;99.90;;;;;;5002684;28;20222;-62
2023/04/20 04:40:55;;;;;;;1.00;1.00;;;5.30;99.90;;;;;;4999803;28;20257;-64
2023/04/20 04:43:23;;;;;;;1.10;1.10;;;5.30;99.90;;;;;;4978761;28;20301;-66
2023/04/20 04:45:49;;;;;;;0.97;0.97;;;5.20;99.90;;;;;;4976911;28;20225;-63
2023/04/20 04:48:17;;;;;;;1.00;1.00;;;5.10;99.90;;;;;;4989342;28;20698;-63
2023/04/20 04:50:46;;;;;;;1.20;1.20;;;4.90;99.90;;;;;;4994527;28;20611;-66
2023/04/20 04:53:13;;;;;;;1.00;1.00;;;4.90;99.90;;;;;;4995079;28;20210;-65
2023/04/20 04:55:39;;;;;;;1.20;1.20;;;4.80;99.90;;;;;;4995188;28;20296;-64
2023/04/20 04:58:06;;;;;;;1.37;1.27;;;4.70;99.90;;;;;;4994850;28;20217;-64
2023/04/20 05:00:33;;;;;;;1.10;1.10;;;4.60;99.90;;;;;;4994347;28;20257;-65
2023/04/20 05:03:00;;;;;;;1.03;1.03;;;4.60;99.90;;;;;;4994907;28;20210;-64
2023/04/20 05:05:27;;;;;;;1.23;1.23;;;4.50;99.90;;;;;;4995492;28;20205;-64
2023/04/20 05:07:55;;;;;;;1.05;1.05;;;4.50;99.90;;;;;;4995905;28;20213;-66
2023/04/20 05:10:22;;;;;;;1.30;1.30;;;4.60;99.90;;;;;;4995022;28;20709;-66
2023/04/20 05:12:49;;;;;;;2.00;1.40;;;4.60;99.90;;;;;;4995742;28;20217;-65
2023/04/20 05:15:16;;;;;;;1.47;1.37;;;4.60;99.90;;;;;;4996107;28;20700;-65
2023/04/20 05:17:43;;;;;;;1.33;1.30;;;4.70;99.90;;;;;;4995177;28;20229;-65
2023/04/20 05:20:11;;;;;;;1.10;1.10;;;4.70;99.90;;;;;;4996207;28;20701;-66
2023/04/20 05:22:37;;;;;;;1.47;1.40;;;4.70;99.90;;;;;;4998758;28;20213;-64
2023/04/20 05:25:07;;;;;;;1.70;1.40;;;4.70;99.90;;;;;;4997465;28;20206;-63
2023/04/20 05:27:34;;;;;;;1.50;1.40;;;4.80;99.90;;;;;;4995649;28;20754;-65
2023/04/20 05:30:01;;;;;;;1.40;1.30;;;4.80;99.90;;;;;;4994074;28;20248;-66
2023/04/20 05:32:28;;;;;;;1.60;1.50;;;4.80;99.90;;;;;;4994615;28;20695;-65
2023/04/20 05:34:54;;;;;;;1.50;1.50;;;4.80;99.90;;;;;;4994331;28;20202;-66
2023/04/20 05:37:21;;;;;;;1.50;1.50;;;4.90;99.90;;;;;;4991451;28;20612;-65
2023/04/20 05:39:48;;;;;;;1.55;1.45;;;4.90;99.90;;;;;;4991194;28;20230;-63
2023/04/20 05:42:16;;;;;;;1.58;1.48;;;5.10;99.90;;;;;;4993053;28;20213;-66
2023/04/20 05:44:43;;;;;;;1.30;1.30;;;5.20;99.90;;;;;;4995383;28;20313;-64
2023/04/20 05:47:10;;;;;;;1.48;1.48;;;5.30;99.90;;;;;;4995628;28;20210;-66
2023/04/20 05:49:37;;;;;;;1.60;1.50;;;5.40;99.90;;;;;;4993928;28;20461;-65
2023/04/20 05:52:04;;;;;;;1.50;1.40;;;5.60;99.90;;;;;;4994644;28;20246;-65
2023/04/20 05:54:31;;;;;;;1.50;1.40;;;5.80;99.90;;;;;;4993847;28;20201;-64
2023/04/20 05:56:58;;;;;;;1.60;1.50;;;5.90;99.90;;;;;;4990943;28;20203;-64
2023/04/20 05:59:27;;;;;;;1.73;1.63;;;6.00;99.90;;;;;;4982387;28;20359;-66
2023/04/20 06:01:54;;;;;;;1.70;1.60;;;6.00;99.90;;;;;;4975217;28;20206;-65
2023/04/20 06:04:20;;;;;;;1.50;1.40;;;6.10;99.90;;;;;;4977053;28;20297;-64
2023/04/20 06:06:47;;;;;;;1.97;1.50;;;6.20;99.90;;;;;;4977833;28;20228;-64
2023/04/20 06:09:14;;;;;;;1.60;1.50;;;6.30;99.90;;;;;;4977466;28;20261;-65
2023/04/20 06:11:41;;;;;;;3.78;1.48;;;6.60;99.90;;;;;;4977165;28;20206;-65
2023/04/20 06:14:10;;;;;;;1.57;1.47;;;6.60;99.90;;;;;;4977658;28;20214;-63
2023/04/20 06:16:38;;;;;;;1.70;1.60;;;6.80;99.90;;;;;;4978723;28;20214;-64
2023/04/20 06:19:05;;;;;;;1.60;1.50;;;6.90;99.90;;;;;;4976749;28;20227;-66
2023/04/20 06:21:33;;;;;;;2.03;1.43;;;7.10;99.90;;;;;;4976685;28;20738;-66
2023/04/20 06:24:00;;;;;;;1.60;1.50;;;7.10;99.90;;;;;;4976455;28;20217;-64
2023/04/20 06:26:27;;;;;;;1.60;1.50;;;7.20;99.90;;;;;;4976884;28;20850;-65
2023/04/20 06:28:54;;;;;;;1.43;1.40;;;7.30;99.90;;;;;;4976999;28;20290;-64
2023/04/20 06:31:21;;;;;;;1.27;1.10;;;7.50;99.90;;;;;;4975855;28;20233;-65
2023/04/20 06:33:49;;;;;;;1.43;1.43;;;7.60;99.90;;;;;;4976222;28;20306;-65
2023/04/20 06:36:16;;;;;;;1.40;1.40;;;7.70;99.90;;;;;;4982445;28;20293;-64
2023/04/20 06:38:43;;;;;;;1.50;1.40;;;7.80;99.90;;;;;;4994928;28;21117;-65
2023/04/20 06:41:09;;;;;;;1.50;1.40;;;8.00;99.90;;;;;;4994627;28;20229;-66
2023/04/20 06:43:36;;;;;;;1.40;1.40;;;8.10;99.90;;;;;;4990522;28;20757;-66
2023/04/20 06:46:03;;;;;;;1.80;1.67;;;8.20;99.90;;;;;;4974932;28;20278;-65
2023/04/20 06:48:30;;;;;;;1.50;1.40;;;8.20;99.90;;;;;;4975429;28;20306;-65
2023/04/20 06:50:58;;;;;;;1.70;1.60;;;8.10;99.90;;;;;;4974493;28;20717;-66
2023/04/20 06:53:25;;;;;;;1.40;1.40;;;8.10;99.90;;;;;;4984582;28;20203;-65
2023/04/20 06:55:54;;;;;;;1.63;1.53;;;8.30;99.90;;;;;;4979861;28;20211;-63
2023/04/20 06:58:21;;;;;;;1.87;1.77;;;8.40;99.90;;;;;;4976861;28;20213;-64
2023/04/20 07:00:47;;;;;;;1.80;1.55;;;8.50;99.90;;;;;;4976348;28;20231;-66
2023/04/20 07:03:15;;;;;;;1.30;1.30;;;8.40;99.90;;;;;;4986143;28;20212;-65
2023/04/20 07:05:41;;;;;;;1.33;1.20;;;8.50;99.90;;;;;;4989703;28;20207;-65
2023/04/20 07:08:10;;;;;;;1.40;1.30;;;8.50;99.90;;;;;;4989672;28;20245;-65
2023/04/20 07:10:36;;;;;;;1.30;1.30;;;8.50;99.90;;;;;;4989751;28;20207;-66
2023/04/20 07:13:03;;;;;;;1.60;1.50;;;8.70;99.90;;;;;;4987804;28;20206;-67
2023/04/20 07:15:30;;;;;;;1.83;1.73;;;8.70;99.90;;;;;;4985787;28;20266;-66
2023/04/20 07:17:57;;;;;;;2.13;1.80;;;8.80;99.90;;;;;;4985962;28;20218;-67
2023/04/20 07:20:24;;;;;;;1.53;1.47;;;8.90;99.90;;;;;;4982158;28;20295;-66
2023/04/20 07:22:51;;;;;;;1.60;1.50;;;9.00;99.90;;;;;;4984081;28;20233;-64
2023/04/20 07:25:19;;;;;;;1.50;1.40;;;9.00;99.90;;;;;;4974584;28;20207;-64
2023/04/20 07:27:46;;;;;;;1.33;1.33;;;9.10;99.90;;;;;;4975564;28;20238;-65
2023/04/20 07:30:14;;;;;;;1.30;1.30;;;9.10;99.90;;;;;;4974202;28;20345;-66
2023/04/20 07:32:41;;;;;;;1.53;1.43;;;9.20;99.90;;;;;;4974294;28;20692;-64
2023/04/20 07:35:09;;;;;;;1.30;1.30;;;9.30;99.90;;;;;;4975329;28;20599;-65
2023/04/20 07:37:36;;;;;;;1.43;1.40;;;9.40;99.90;;;;;;4974504;28;20293;-64
2023/04/20 07:40:05;;;;;;;1.60;1.50;;;9.60;99.90;;;;;;4973161;28;20231;-66
2023/04/20 07:42:35;;;;;;;1.50;1.40;;;9.80;99.90;;;;;;4973472;28;20206;-65
2023/04/20 07:45:02;;;;;;;1.53;1.43;;;9.80;99.90;;;;;;4974496;28;20211;-65
2023/04/20 07:47:29;;;;;;;1.23;1.23;;;9.90;99.90;;;;;;4974789;28;20210;-65
2023/04/20 07:49:56;;;;;;;1.30;1.30;;;10.00;99.90;;;;;;4973695;28;20229;-65
2023/04/20 07:52:23;;;;;;;2.07;1.30;;;10.20;99.90;;;;;;4974183;28;20211;-64
2023/04/20 07:54:52;;;;;;;1.60;1.50;;;10.30;99.90;;;;;;4974496;28;20207;-65
2023/04/20 07:57:19;;;;;;;1.57;1.57;;;10.40;99.90;;;;;;4975139;28;20211;-64
2023/04/20 07:59:47;;;;;;;1.60;1.50;;;10.40;99.90;;;;;;4973593;28;20240;-66
2023/04/20 08:02:14;;;;;;;1.33;1.33;;;10.40;99.90;;;;;;4973159;28;20297;-65
2023/04/20 08:04:43;;;;;;;3.30;1.70;;;10.50;99.90;;;;;;4975282;28;20210;-64
2023/04/20 08:07:10;;;;;;;1.53;1.43;;;10.60;99.90;;;;;;4974861;28;20203;-65
2023/04/20 08:09:37;;;;;;;1.80;1.70;;;10.70;99.90;;;;;;4974043;28;20219;-66
2023/04/20 08:12:04;;;;;;;6.10;3.17;;;11.00;99.90;;;;;;4974895;28;20294;-66
2023/04/20 08:14:31;;;;;;;1.60;1.50;;;11.00;99.90;;;;;;4982834;28;20217;-65
2023/04/20 08:16:59;;;;;;;1.30;1.30;;;11.00;99.90;;;;;;4992898;28;20270;-62
2023/04/20 08:19:26;;;;;;;1.40;1.40;;;11.10;99.90;;;;;;5001876;28;20236;-61
2023/04/20 08:21:53;;;;;;;1.60;1.50;;;11.20;99.90;;;;;;5008074;28;20194;-62
2023/04/20 08:24:20;;;;;;;1.40;1.40;;;11.30;99.90;;;;;;5009914;28;20237;-68
2023/04/20 08:26:47;;;;;;;1.40;1.30;;;11.20;99.90;;;;;;5009227;28;20214;-62
2023/04/20 08:29:14;;;;;;;1.50;1.40;;;11.50;99.90;;;;;;5004557;28;20312;-64
2023/04/20 08:31:41;;;;;;;1.40;1.30;;;11.30;99.90;;;;;;4993818;28;20209;-63
2023/04/20 08:34:09;;;;;;;1.60;1.50;;;11.40;99.90;;;;;;4993827;28;20205;-63
2023/04/20 08:36:35;;;;;;;1.50;1.40;;;11.50;99.90;;;;;;4993246;28;20206;-63
2023/04/20 08:39:08;;;;;;;1.40;1.40;;;11.50;99.90;;;;;;4992468;28;20214;-63
2023/04/20 08:41:35;;;;;;;1.73;1.60;;;11.40;99.90;;;;;;4993082;28;20193;-65
2023/04/20 08:44:02;;;;;;;1.47;1.40;;;11.30;99.90;;;;;;4993375;28;20217;-63
2023/04/20 08:46:29;;;;;;;1.40;1.40;;;10.80;99.90;;;;;;4993153;28;20300;-63
2023/04/20 08:48:57;;;;;;;1.57;1.50;;;10.80;99.90;;;;;;4992477;28;20266;-64
2023/04/20 08:51:25;;;;;;;2.93;1.47;;;10.80;99.90;;;;;;4991995;28;20198;-64
2023/04/20 08:53:54;;;;;;;1.20;1.20;;;10.80;99.90;;;;;;4992692;28;20209;-62
2023/04/20 08:56:33;;;;;;;1.40;1.40;;;10.90;99.90;;;;;;4997398;28;20680;-62
2023/04/20 08:59:02;;;;;;;1.23;1.23;;;11.10;99.90;;;;;;4995226;28;20214;-63
2023/04/20 09:01:29;;;;;;;1.70;1.33;;;11.30;99.90;;;;;;4992393;28;20322;-64
2023/04/20 09:03:56;;;;;;;1.30;1.20;;;11.50;99.90;;;;;;4992526;28;20341;-62
2023/04/20 09:06:25;;;;;;;1.50;1.40;;;11.60;99.90;;;;;;4992600;28;20217;-63
2023/04/20 09:08:52;;;;;;;2.67;1.40;;;11.40;99.90;;;;;;4992711;28;20229;-63
2023/04/20 09:11:23;;;;;;;1.57;1.40;;;11.10;99.90;;;;;;4991634;28;20198;-63
2023/04/20 09:14:00;;;;;;;1.60;1.50;;;11.20;99.90;;;;;;4993031;28;20202;-63
2023/04/20 09:16:27;;;;;;;1.43;1.33;;;11.20;99.90;;;;;;4992921;28;20585;-63
2023/04/20 09:18:55;;;;;;;1.60;1.50;;;11.00;99.90;;;;;;4991065;28;20210;-63
2023/04/20 09:21:23;;;;;;;1.20;1.20;;;11.00;99.90;;;;;;4988458;28;20229;-63
2023/04/20 09:23:59;;;;;;;1.57;1.47;;;11.10;99.90;;;;;;4990055;28;20226;-64
2023/04/20 09:26:26;;;;;;;1.60;1.50;;;11.20;99.90;;;;;;4989994;28;20212;-63
2023/04/20 09:28:53;;;;;;;1.30;1.30;;;11.40;99.90;;;;;;4990204;28;20585;-68
2023/04/20 09:31:20;;;;;;;1.53;1.50;;;11.50;99.90;;;;;;4989525;28;20206;-63
2023/04/20 09:33:56;;;;;;;1.63;1.53;;;11.40;99.90;;;;;;4994481;28;20213;-64
2023/04/20 09:36:23;;;;;;;1.53;1.43;;;11.20;99.90;;;;;;4994973;28;20205;-62
2023/04/20 09:39:03;;;;;;;1.42;1.33;;;11.10;99.90;;;;;;4995094;28;20205;-62
2023/04/20 09:41:31;;;;;;;1.23;1.23;;;11.20;99.90;;;;;;4995691;28;20660;-64
2023/04/20 09:43:59;;;;;;;1.50;1.37;;;11.20;99.90;;;;;;4997529;28;20210;-63
2023/04/20 09:46:30;;;;;;;1.33;1.33;;;11.20;99.90;;;;;;4995576;28;20218;-63
2023/04/20 09:48:58;;;;;;;1.20;1.20;;;11.20;99.90;;;;;;4993476;28;20681;-63
2023/04/20 09:51:26;;;;;;;1.60;1.50;;;11.30;99.90;;;;;;4993087;28;20206;-63
2023/04/20 09:53:54;;;;;;;1.53;1.43;;;11.30;99.90;;;;;;4993820;28;20210;-63
2023/04/20 09:56:24;;;;;;;1.20;1.20;;;11.10;99.90;;;;;;4994096;28;20209;-68
2023/04/20 09:58:51;;;;;;;1.25;1.25;;;11.20;99.90;;;;;;4992948;28;20693;-63
2023/04/20 10:01:19;;;;;;;1.33;1.33;;;11.40;99.90;;;;;;4993790;28;20708;-61
2023/04/20 10:03:46;;;;;;;1.43;1.37;;;11.50;99.90;;;;;;4995405;28;20210;-64
2023/04/20 10:06:20;;;;;;;1.33;1.33;;;11.60;99.90;;;;;;4993275;28;20205;-63
2023/04/20 10:08:47;;;;;;;1.40;1.30;;;11.70;99.90;;;;;;4992922;28;20593;-64
2023/04/20 10:11:26;;;;;;;1.07;1.03;;;11.80;99.90;;;;;;4992835;28;20321;-65
2023/04/20 10:13:53;;;;;;;1.20;1.20;;;11.90;99.90;;;;;;4997966;28;20213;-62
2023/04/20 10:16:20;;;;;;;1.33;1.30;;;11.90;99.90;;;;;;4998605;28;20209;-62
2023/04/20 10:18:57;;;;;;;1.20;1.20;;;11.90;99.90;;;;;;4996658;28;20214;-63
2023/04/20 10:21:24;;;;;;;1.50;1.40;;;11.80;99.90;;;;;;4992654;28;20225;-62
2023/04/20 10:23:52;;;;;;;1.27;1.27;;;11.70;99.90;;;;;;4994840;28;20664;-64
2023/04/20 10:26:19;;;;;;;1.20;1.20;;;11.60;99.90;;;;;;4992749;28;20210;-63
2023/04/20 10:28:48;;;;;;;1.50;1.40;;;11.60;99.90;;;;;;4994329;28;20214;-62
2023/04/20 10:31:15;;;;;;;1.40;1.40;;;11.60;99.90;;;;;;4994170;28;20233;-64
2023/04/20 10:33:52;;;;;;;1.50;1.40;;;11.60;99.90;;;;;;4992593;28;20260;-63
2023/04/20 10:36:27;;;;;;;1.58;1.48;;;11.70;99.90;;;;;;4992978;28;20607;-62
2023/04/20 10:38:54;;;;;;;1.50;1.50;;;11.80;99.90;;;;;;4994492;28;20206;-63
2023/04/20 10:41:21;;;;;;;1.30;1.30;;;11.80;99.90;;;;;;4991965;28;20234;-64
2023/04/20 10:43:50;;;;;;;0.90;0.90;;;11.90;99.90;;;;;;4991809;28;20220;-64
2023/04/20 10:46:18;;;;;;;0.80;0.80;;;12.00;99.90;;;;;;4992940;28;20221;-63
2023/04/20 10:48:55;;;;;;;0.80;0.80;;;12.10;99.90;;;;;;4991979;28;20210;-64
2023/04/20 10:51:22;;;;;;;0.80;0.80;;;12.10;99.90;;;;;;4995360;28;20206;-64
2023/04/20 10:53:59;;;;;;;0.93;0.90;;;12.30;99.90;;;;;;4997364;28;20233;-64
2023/04/20 10:56:26;;;;;;;0.98;0.98;;;12.50;99.90;;;;;;4991860;28;20225;-62
2023/04/20 10:58:55;;;;;;;1.00;1.00;;;12.80;99.90;;;;;;4991685;28;20214;-65
2023/04/20 11:01:22;;;;;;;1.30;0.93;;;13.00;99.90;;;;;;4990744;28;20230;-63
2023/04/20 11:03:51;;;;;;;1.27;1.17;;;13.30;99.90;;;;;;4991494;28;20594;-63
2023/04/20 11:06:18;;;;;;;1.00;0.90;;;13.50;99.90;;;;;;4990155;28;20271;-64
2023/04/20 11:08:45;;;;;;;1.10;1.10;;;13.60;99.90;;;;;;4989964;28;20210;-62
2023/04/20 11:11:20;;;;;;;0.80;0.80;;;13.70;99.90;;;;;;4992167;28;20317;-61
2023/04/20 11:13:47;;;;;;;0.80;0.80;;;13.90;99.90;;;;;;4993071;28;20269;-64
2023/04/20 11:16:18;;;;;;;0.90;0.90;;;14.00;99.90;;;;;;4976344;28;20261;-62
2023/04/20 11:18:52;;;;;;;0.80;0.80;;;14.00;99.90;;;;;;4973447;28;20293;-62
2023/04/20 11:21:19;;;;;;;0.90;0.90;;;13.90;99.90;;;;;;4972399;28;20230;-63
2023/04/20 11:23:46;;;;;;;0.70;0.70;;;14.00;99.90;;;;;;4972171;28;20214;-64
2023/04/20 11:26:13;;;;;;;0.67;0.67;;;14.10;99.90;;;;;;4973160;28;20211;-63
2023/04/20 11:28:51;;;;;;;0.70;0.70;;;14.40;99.90;;;;;;4979636;28;20290;-63
2023/04/20 11:31:20;;;;;;;0.90;0.90;;;14.50;99.90;;;;;;4971598;28;20293;-64
2023/04/20 11:33:46;;;;;;;0.80;0.80;;;14.50;99.90;;;;;;4970923;28;20221;-63
2023/04/20 11:36:19;;;;;;;0.90;0.90;;;14.60;99.90;;;;;;4971656;28;20207;-64
2023/04/20 11:38:46;;;;;;;0.70;0.70;;;14.90;99.90;;;;;;4972443;28;20224;-62
2023/04/20 11:41:13;;;;;;;0.80;0.80;;;14.90;99.90;;;;;;4972382;28;20234;-62
2023/04/20 11:43:40;;;;;;;0.90;0.90;;;15.00;99.90;;;;;;4972985;28;20210;-62
2023/04/20 11:46:14;;;;;;;0.90;0.90;;;15.00;99.90;;;;;;4972282;28;20281;-62
2023/04/20 11:48:42;;;;;;;0.77;0.77;;;15.00;99.90;;;;;;4971986;28;20765;-62
2023/04/20 11:51:09;;;;;;;0.80;0.80;;;14.90;99.90;;;;;;4971481;28;20289;-63
2023/04/20 11:53:36;;;;;;;0.90;0.90;;;14.70;99.90;;;;;;4973040;28;20214;-63
2023/04/20 11:56:03;;;;;;;1.00;1.00;;;14.50;99.90;;;;;;4972057;28;20229;-63
2023/04/20 11:58:30;;;;;;;0.63;0.63;;;14.30;99.90;;;;;;4971877;28;20655;-63
2023/04/20 12:00:57;;;;;;;0.80;0.80;;;14.30;99.90;;;;;;4971043;28;20223;-64
2023/04/20 12:03:24;;;;;;;0.80;0.80;;;14.30;99.90;;;;;;4972534;28;20729;-63
2023/04/20 12:05:52;;;;;;;0.77;0.77;;;14.30;99.90;;;;;;4970332;28;20210;-64
2023/04/20 12:08:19;;;;;;;0.80;0.80;;;14.20;99.90;;;;;;4971797;28;20297;-63
2023/04/20 12:10:46;;;;;;;0.90;0.90;;;14.40;99.90;;;;;;4970653;28;20232;-62
2023/04/20 12:13:13;;;;;;;0.90;0.90;;;14.70;99.90;;;;;;4970939;28;20210;-63
2023/04/20 12:15:40;;;;;;;0.70;0.70;;;14.70;99.90;;;;;;4990167;28;20202;-63
2023/04/20 12:18:07;;;;;;;0.70;0.70;;;14.80;99.90;;;;;;4972548;28;20202;-63
2023/04/20 12:20:34;;;;;;;0.73;0.73;;;14.70;99.90;;;;;;4972096;28;20321;-63
2023/04/20 12:23:02;;;;;;;0.75;0.75;;;15.00;99.90;;;;;;4973687;28;20212;-65
2023/04/20 12:25:29;;;;;;;0.70;0.70;;;15.10;99.90;;;;;;4975391;28;20883;-63
2023/04/20 12:27:56;;;;;;;0.53;0.53;;;15.10;99.90;;;;;;4973587;28;20269;-61
2023/04/20 12:30:23;;;;;;;0.80;0.80;;;14.90;99.90;;;;;;4971561;28;20240;-62
2023/04/20 12:32:50;;;;;;;0.80;0.80;;;14.80;99.90;;;;;;4973025;28;20221;-62
2023/04/20 12:35:17;;;;;;;0.60;0.60;;;14.80;99.90;;;;;;4973276;28;20565;-63
2023/04/20 12:37:43;;;;;;;0.60;0.60;;;14.60;99.90;;;;;;4970832;28;20625;-63
2023/04/20 12:40:12;;;;;;;1.10;1.10;;;14.60;99.90;;;;;;4972855;28;20258;-63
2023/04/20 12:42:39;;;;;;;0.80;0.80;;;14.60;99.90;;;;;;4975616;28;20246;-64
2023/04/20 12:45:07;;;;;;;0.80;0.80;;;14.80;99.90;;;;;;4981784;28;20215;-63
2023/04/20 12:47:34;;;;;;;0.63;0.63;;;14.50;99.90;;;;;;4975496;28;20206;-63
2023/04/20 12:50:01;;;;;;;1.40;1.30;;;14.40;99.90;;;;;;4973340;28;20241;-64
2023/04/20 12:52:28;;;;;;;0.90;0.90;;;14.30;99.90;;;;;;4973428;28;20620;-64
2023/04/20 12:54:54;;;;;;;0.70;0.70;;;14.30;99.90;;;;;;4973703;28;20218;-63
2023/04/20 12:57:23;;;;;;;0.80;0.80;;;14.50;99.90;;;;;;4973597;28;20293;-63
2023/04/20 12:59:49;;;;;;;0.77;0.70;;;14.70;99.90;;;;;;4972198;28;20230;-63
2023/04/20 13:02:17;;;;;;;0.60;0.60;;;14.80;99.90;;;;;;4975385;28;20596;-63
2023/04/20 13:04:45;;;;;;;0.67;0.67;;;14.70;99.90;;;;;;4975487;28;20206;-64
2023/04/20 13:07:12;;;;;;;0.70;0.70;;;14.70;99.90;;;;;;4973985;28;20215;-64
2023/04/20 13:09:39;;;;;;;0.80;0.80;;;14.80;99.90;;;;;;4975495;28;20237;-63